Time;durP1;ratioP1;P1;durP2;ratioP2;P2;SDS_P1;SDS_P2;PMS_P1;PMS_P2;Temp;Humidity;BMP_temperature;BMP_pressure;BME280_temperature;BME280_humidity;BME280_pressure;Samples;Min_cycle;Max_cycle;Signal;HPM_P1;HPM_P2
2021/05/26 00:00:59;;;;;;;5.50;2.58;;;11.20;91.90;;;;;;5033446;28;20053;-85
2021/05/26 00:03:25;;;;;;;7.60;3.15;;;11.20;91.70;;;;;;5033673;28;20138;-85
2021/05/26 00:05:51;;;;;;;4.70;2.45;;;11.20;91.80;;;;;;5033094;28;20049;-85
2021/05/26 00:08:27;;;;;;;6.30;2.65;;;11.10;91.70;;;;;;5033574;28;20057;-85
2021/05/26 00:10:55;;;;;;;6.57;2.70;;;11.10;91.80;;;;;;5032474;28;20099;-85
2021/05/26 00:13:21;;;;;;;6.13;2.90;;;11.10;91.80;;;;;;5032533;28;20506;-85
2021/05/26 00:15:47;;;;;;;5.45;2.78;;;11.10;91.70;;;;;;5033595;28;20081;-84
2021/05/26 00:18:13;;;;;;;6.45;2.78;;;11.10;91.80;;;;;;5033267;28;20061;-84
2021/05/26 00:20:39;;;;;;;5.82;3.33;;;11.10;91.70;;;;;;5032557;28;20456;-85
2021/05/26 00:23:05;;;;;;;5.72;2.53;;;11.10;91.90;;;;;;5033276;28;20136;-85
2021/05/26 00:25:30;;;;;;;7.72;2.63;;;11.00;91.90;;;;;;5033491;28;20053;-85
2021/05/26 00:27:59;;;;;;;5.05;2.47;;;11.00;91.70;;;;;;5031959;28;20409;-85
2021/05/26 00:30:27;;;;;;;6.45;2.70;;;11.10;91.70;;;;;;5032154;28;20073;-85
2021/05/26 00:32:54;;;;;;;5.72;2.67;;;11.00;91.90;;;;;;5032863;28;20432;-86
2021/05/26 00:35:20;;;;;;;7.05;3.08;;;11.00;91.80;;;;;;5015119;28;20053;-86
2021/05/26 00:37:46;;;;;;;6.63;2.45;;;11.00;92.00;;;;;;5032948;28;20053;-86
2021/05/26 00:40:13;;;;;;;7.97;2.70;;;11.00;91.90;;;;;;5032609;28;20080;-86
2021/05/26 00:42:39;;;;;;;7.15;2.70;;;11.00;91.90;;;;;;5032289;28;20088;-85
2021/05/26 00:45:05;;;;;;;5.07;2.42;;;11.00;91.80;;;;;;5032640;28;20045;-85
2021/05/26 00:47:42;;;;;;;5.90;2.70;;;11.00;91.80;;;;;;5033109;28;20052;-85
2021/05/26 00:50:10;;;;;;;5.43;2.53;;;10.90;91.60;;;;;;5033003;28;20054;-85
2021/05/26 00:52:37;;;;;;;5.53;2.30;;;10.90;91.70;;;;;;5015291;28;20493;-85
2021/05/26 00:55:04;;;;;;;5.95;2.60;;;10.90;91.60;;;;;;5031721;28;20053;-85
2021/05/26 00:57:30;;;;;;;6.93;2.58;;;10.90;91.80;;;;;;5032821;28;20052;-85
2021/05/26 00:59:56;;;;;;;6.50;2.60;;;10.90;91.60;;;;;;5032841;28;20046;-85
2021/05/26 01:02:22;;;;;;;7.70;2.80;;;10.90;91.70;;;;;;5032214;28;20405;-86
2021/05/26 01:04:47;;;;;;;5.55;2.63;;;10.80;91.70;;;;;;5032443;28;20119;-85
2021/05/26 01:07:13;;;;;;;6.10;2.20;;;10.90;91.70;;;;;;5032451;28;20058;-85
2021/05/26 01:09:38;;;;;;;5.35;2.25;;;10.80;91.60;;;;;;5031682;28;20068;-85
2021/05/26 01:12:05;;;;;;;6.05;2.90;;;10.80;91.60;;;;;;5032306;28;20053;-85
2021/05/26 01:14:31;;;;;;;5.03;2.05;;;10.80;91.60;;;;;;5032743;28;20178;-86
2021/05/26 01:16:56;;;;;;;8.55;2.72;;;10.80;91.60;;;;;;5031880;28;20136;-86
2021/05/26 01:19:22;;;;;;;6.28;2.50;;;10.80;91.70;;;;;;5032749;28;20080;-86
2021/05/26 01:21:51;;;;;;;8.27;3.45;;;10.80;91.70;;;;;;5032782;28;20057;-86
2021/05/26 01:24:17;;;;;;;7.55;2.65;;;10.80;91.80;;;;;;5031821;28;20049;-85
2021/05/26 01:26:45;;;;;;;7.53;2.83;;;10.80;91.60;;;;;;5032350;28;20045;-85
2021/05/26 01:29:10;;;;;;;7.88;2.90;;;10.80;91.70;;;;;;5032517;28;20073;-86
2021/05/26 01:31:36;;;;;;;6.15;2.78;;;10.80;91.70;;;;;;5031990;28;20073;-86
2021/05/26 01:34:03;;;;;;;6.55;2.88;;;10.80;91.70;;;;;;5032183;28;20065;-86
2021/05/26 01:36:31;;;;;;;5.70;2.55;;;10.80;91.80;;;;;;5032475;28;20045;-86
2021/05/26 01:38:57;;;;;;;5.10;2.17;;;10.80;91.90;;;;;;5031352;28;20050;-86
2021/05/26 01:41:23;;;;;;;8.15;3.10;;;10.70;91.60;;;;;;5033585;28;20052;-85
2021/05/26 01:43:48;;;;;;;6.57;2.85;;;10.70;91.90;;;;;;5036259;28;20128;-87
2021/05/26 01:46:16;;;;;;;4.43;2.45;;;10.70;91.90;;;;;;5035364;28;20574;-86
2021/05/26 01:48:45;;;;;;;4.78;2.22;;;10.70;91.90;;;;;;5036314;28;20045;-86
2021/05/26 01:51:11;;;;;;;3.83;2.33;;;10.70;91.90;;;;;;5035042;28;20052;-85
2021/05/26 01:53:37;;;;;;;6.55;2.55;;;10.70;91.90;;;;;;5035951;28;20497;-85
2021/05/26 01:56:03;;;;;;;6.05;2.20;;;10.60;92.20;;;;;;5035923;28;20051;-86
2021/05/26 01:58:28;;;;;;;5.30;2.45;;;10.70;91.70;;;;;;5035417;28;20099;-85
2021/05/26 02:00:54;;;;;;;6.10;2.20;;;10.70;91.70;;;;;;5035484;28;20498;-86
2021/05/26 02:03:20;;;;;;;6.13;2.42;;;10.60;91.60;;;;;;5036020;28;20064;-86
2021/05/26 02:05:45;;;;;;;5.00;2.35;;;10.70;91.80;;;;;;5034847;28;20065;-86
2021/05/26 02:08:11;;;;;;;7.80;2.95;;;10.70;91.90;;;;;;5035511;28;20524;-85
2021/05/26 02:13:21;;;;;;;5.10;2.50;;;10.60;91.90;;;;;;5035150;28;20049;-86
2021/05/26 02:15:46;;;;;;;5.35;3.03;;;10.60;92.00;;;;;;5035443;28;20052;-85
2021/05/26 02:18:12;;;;;;;5.43;2.72;;;10.60;92.10;;;;;;5017860;28;20041;-86
2021/05/26 02:20:38;;;;;;;6.50;2.95;;;10.60;92.40;;;;;;5034594;28;20045;-85
2021/05/26 02:23:03;;;;;;;5.00;2.58;;;10.60;92.10;;;;;;5035368;28;20505;-85
2021/05/26 02:25:29;;;;;;;5.63;2.75;;;10.60;92.00;;;;;;5035744;28;20422;-86
2021/05/26 02:27:54;;;;;;;8.20;3.63;;;10.60;92.00;;;;;;5034615;28;20496;-86
2021/05/26 02:30:21;;;;;;;7.30;3.50;;;10.60;92.00;;;;;;5035444;28;20421;-86
2021/05/26 02:32:46;;;;;;;5.93;2.92;;;10.60;92.30;;;;;;5035131;28;20496;-86
2021/05/26 02:35:13;;;;;;;5.35;2.83;;;10.50;91.90;;;;;;5033986;28;20132;-86
2021/05/26 02:37:39;;;;;;;6.68;2.95;;;10.50;92.00;;;;;;5035430;28;20045;-86
2021/05/26 02:40:06;;;;;;;5.32;2.67;;;10.50;92.10;;;;;;5034852;28;20099;-86
2021/05/26 02:42:32;;;;;;;6.35;3.63;;;10.50;91.90;;;;;;5035349;28;20045;-86
2021/05/26 02:44:57;;;;;;;6.63;3.05;;;10.50;91.90;;;;;;5034936;28;20041;-86
2021/05/26 02:47:23;;;;;;;5.38;2.60;;;10.50;91.80;;;;;;5034418;28;20045;-86
2021/05/26 02:49:49;;;;;;;6.10;3.17;;;10.50;91.80;;;;;;5035101;28;20046;-86
2021/05/26 02:52:14;;;;;;;5.45;3.03;;;10.50;91.90;;;;;;5034659;28;20080;-86
2021/05/26 02:54:40;;;;;;;5.95;2.88;;;10.40;91.80;;;;;;5033626;28;20049;-86
2021/05/26 02:57:06;;;;;;;5.07;2.85;;;10.40;92.10;;;;;;5034655;28;20052;-86
2021/05/26 02:59:32;;;;;;;5.47;3.28;;;10.40;91.70;;;;;;5034962;28;20468;-86
2021/05/26 03:01:57;;;;;;;6.50;3.58;;;10.40;91.90;;;;;;5034094;28;20454;-85
2021/05/26 03:04:23;;;;;;;5.78;4.00;;;10.40;92.00;;;;;;5035023;28;20060;-87
2021/05/26 03:06:48;;;;;;;6.82;4.07;;;10.40;92.00;;;;;;5034754;28;20395;-86
2021/05/26 03:09:14;;;;;;;6.93;3.78;;;10.40;92.00;;;;;;5033983;28;20106;-86
2021/05/26 03:11:40;;;;;;;6.82;4.20;;;10.40;91.90;;;;;;5034931;28;20100;-86
2021/05/26 03:14:06;;;;;;;5.90;3.85;;;10.40;92.10;;;;;;5034381;28;20049;-86
2021/05/26 03:16:31;;;;;;;6.85;3.78;;;10.30;92.30;;;;;;5033729;28;20041;-86
2021/05/26 03:18:57;;;;;;;6.70;4.40;;;10.40;92.30;;;;;;5034194;28;20053;-86
2021/05/26 03:21:25;;;;;;;5.80;3.60;;;10.30;92.40;;;;;;5034794;28;20052;-86
2021/05/26 03:23:51;;;;;;;11.32;4.82;;;10.30;92.30;;;;;;5033825;28;20053;-86
2021/05/26 03:26:17;;;;;;;9.80;5.88;;;10.30;92.20;;;;;;5034606;28;20041;-86
2021/05/26 03:28:42;;;;;;;6.35;3.75;;;10.30;92.20;;;;;;5034278;28;20050;-86
2021/05/26 03:31:08;;;;;;;6.32;4.53;;;10.30;92.10;;;;;;5033330;28;20041;-86
2021/05/26 03:33:34;;;;;;;11.48;7.28;;;10.30;92.10;;;;;;5034006;28;20135;-85
2021/05/26 03:36:03;;;;;;;11.55;6.97;;;10.30;92.10;;;;;;5033572;28;20560;-86
2021/05/26 03:38:30;;;;;;;10.02;7.28;;;10.30;92.30;;;;;;5033527;28;20534;-86
2021/05/26 03:40:55;;;;;;;12.57;7.63;;;10.30;92.20;;;;;;5033891;28;20164;-86
2021/05/26 03:43:21;;;;;;;10.30;7.22;;;10.30;92.20;;;;;;5034186;28;20042;-86
2021/05/26 03:45:47;;;;;;;10.43;6.15;;;10.30;92.30;;;;;;5033441;28;20109;-86
2021/05/26 03:48:13;;;;;;;14.65;9.07;;;10.30;92.30;;;;;;5033774;28;20100;-86
2021/05/26 03:50:39;;;;;;;13.77;9.95;;;10.30;92.30;;;;;;5032966;28;20049;-86
2021/05/26 03:53:05;;;;;;;14.77;10.10;;;10.30;92.30;;;;;;5033648;28;20119;-86
2021/05/26 03:55:31;;;;;;;13.43;9.77;;;10.20;92.30;;;;;;5033694;28;20050;-86
2021/05/26 03:57:57;;;;;;;9.57;6.97;;;10.20;92.30;;;;;;5032923;28;20106;-86
2021/05/26 04:00:23;;;;;;;21.25;11.23;;;10.20;92.30;;;;;;5033819;28;20425;-86
2021/05/26 04:02:49;;;;;;;14.40;11.52;;;10.20;92.30;;;;;;5033529;28;20132;-85
2021/05/26 04:05:15;;;;;;;20.50;12.57;;;10.20;92.40;;;;;;5031529;28;20052;-86
2021/05/26 04:07:41;;;;;;;10.30;7.70;;;10.20;92.60;;;;;;5033786;28;20045;-86
2021/05/26 04:10:07;;;;;;;20.15;13.15;;;10.20;92.60;;;;;;5033402;28;20481;-86
2021/05/26 04:12:33;;;;;;;12.70;9.90;;;10.20;92.50;;;;;;5032383;28;20056;-86
2021/05/26 04:14:59;;;;;;;16.10;12.43;;;10.10;92.50;;;;;;5032916;28;20053;-86
2021/05/26 04:17:25;;;;;;;15.77;10.13;;;10.10;92.50;;;;;;5033284;28;20045;-86
2021/05/26 04:19:51;;;;;;;23.35;17.55;;;10.10;92.70;;;;;;5032620;28;20513;-86
2021/05/26 04:22:17;;;;;;;18.80;13.85;;;10.10;92.70;;;;;;5033646;28;20045;-86
2021/05/26 04:24:46;;;;;;;15.35;10.48;;;10.10;92.70;;;;;;5033629;28;20493;-86
2021/05/26 04:27:13;;;;;;;23.10;14.43;;;10.10;92.70;;;;;;5032682;28;20054;-86
2021/05/26 04:29:38;;;;;;;24.77;16.17;;;10.10;92.60;;;;;;5033308;28;20049;-85
2021/05/26 04:32:05;;;;;;;22.20;13.98;;;10.10;92.70;;;;;;5032737;28;20057;-86
2021/05/26 04:34:31;;;;;;;23.50;14.95;;;10.10;92.80;;;;;;5032370;28;20049;-86
2021/05/26 04:36:57;;;;;;;18.58;12.75;;;10.10;92.70;;;;;;5032789;28;20060;-85
2021/05/26 04:39:23;;;;;;;25.65;16.08;;;10.20;92.70;;;;;;5033009;28;20069;-86
2021/05/26 04:41:49;;;;;;;18.05;12.55;;;10.10;92.80;;;;;;5032196;28;20095;-86
2021/05/26 04:44:15;;;;;;;24.13;14.75;;;10.20;92.80;;;;;;5032800;28;20136;-86
2021/05/26 04:46:40;;;;;;;18.15;12.82;;;10.20;92.90;;;;;;5032817;28;20045;-85
2021/05/26 04:49:06;;;;;;;21.40;13.80;;;10.10;93.00;;;;;;5032422;28;20073;-87
2021/05/26 04:51:31;;;;;;;17.42;12.13;;;10.20;92.90;;;;;;5032999;28;20072;-86
2021/05/26 04:53:57;;;;;;;17.65;11.85;;;10.10;92.90;;;;;;5031950;28;20099;-86
2021/05/26 04:56:23;;;;;;;19.00;12.45;;;10.10;92.90;;;;;;5032848;28;20069;-86
2021/05/26 04:58:48;;;;;;;18.60;12.13;;;10.10;92.90;;;;;;5032949;28;20096;-86
2021/05/26 05:01:16;;;;;;;19.10;12.43;;;10.10;92.90;;;;;;5031643;28;20050;-86
2021/05/26 05:03:42;;;;;;;23.73;12.93;;;10.20;93.00;;;;;;5032956;28;20057;-86
2021/05/26 05:06:08;;;;;;;18.17;12.10;;;10.10;93.10;;;;;;5032325;28;20041;-85
2021/05/26 05:08:34;;;;;;;19.27;12.10;;;10.10;93.20;;;;;;5032050;28;20513;-85
2021/05/26 05:10:59;;;;;;;18.83;11.40;;;10.10;93.20;;;;;;5032318;28;20048;-86
2021/05/26 05:13:25;;;;;;;19.42;11.52;;;10.20;93.20;;;;;;5031967;28;20045;-86
2021/05/26 05:15:51;;;;;;;21.40;10.77;;;10.20;93.20;;;;;;5040930;28;20401;-87
2021/05/26 05:18:17;;;;;;;15.95;11.50;;;10.20;93.20;;;;;;5056920;28;20417;-86
2021/05/26 05:20:43;;;;;;;18.73;10.00;;;10.20;93.20;;;;;;5056882;28;20048;-85
2021/05/26 05:23:09;;;;;;;19.85;10.40;;;10.20;93.30;;;;;;5055793;28;20052;-85
2021/05/26 05:25:35;;;;;;;17.55;9.93;;;10.20;93.30;;;;;;5056256;28;20041;-86
2021/05/26 05:28:00;;;;;;;16.58;9.25;;;10.20;93.30;;;;;;5056287;28;20044;-86
2021/05/26 05:30:26;;;;;;;17.30;8.90;;;10.20;93.20;;;;;;5055670;28;20171;-87
2021/05/26 05:32:52;;;;;;;15.68;9.70;;;10.20;93.30;;;;;;5037172;28;20041;-91
2021/05/26 05:35:18;;;;;;;17.48;8.68;;;10.30;93.40;;;;;;5049776;28;20045;-91
2021/05/26 05:37:43;;;;;;;14.55;8.27;;;10.30;93.40;;;;;;5042372;28;20038;-91
2021/05/26 05:40:11;;;;;;;12.77;7.15;;;10.30;93.40;;;;;;5047832;28;20080;-91
2021/05/26 05:42:37;;;;;;;14.52;7.35;;;10.30;93.40;;;;;;5045595;28;20053;-90
2021/05/26 05:45:04;;;;;;;12.43;7.40;;;10.40;93.30;;;;;;5042264;28;20487;-91
2021/05/26 05:47:30;;;;;;;11.38;6.22;;;10.30;93.30;;;;;;5037579;28;20148;-90
2021/05/26 05:49:55;;;;;;;12.27;6.75;;;10.40;93.30;;;;;;5036342;28;20046;-91
2021/05/26 05:52:21;;;;;;;13.95;7.30;;;10.40;93.30;;;;;;5036516;28;20042;-91
2021/05/26 05:54:49;;;;;;;12.32;5.57;;;10.40;93.30;;;;;;5036430;28;20057;-93
2021/05/26 05:57:15;;;;;;;13.90;6.40;;;10.40;93.30;;;;;;5038226;28;20532;-92
2021/05/26 05:59:41;;;;;;;11.70;5.18;;;10.40;93.20;;;;;;5038571;28;20072;-93
2021/05/26 06:02:07;;;;;;;10.32;6.55;;;10.40;93.20;;;;;;5036946;28;20190;-94
2021/05/26 06:04:32;;;;;;;10.35;5.57;;;10.40;93.20;;;;;;5036079;28;20058;-87
2021/05/26 06:06:58;;;;;;;9.63;5.13;;;10.40;93.20;;;;;;5035096;28;20049;-86
2021/05/26 06:09:24;;;;;;;10.18;6.78;;;10.50;93.30;;;;;;5035048;28;20050;-88
2021/05/26 06:11:50;;;;;;;10.65;5.72;;;10.40;93.20;;;;;;5034497;28;20485;-85
2021/05/26 06:14:18;;;;;;;9.52;4.65;;;10.50;93.30;;;;;;5035273;28;20103;-85
2021/05/26 06:16:45;;;;;;;7.65;4.70;;;10.50;93.20;;;;;;5035490;28;20051;-85
2021/05/26 06:19:10;;;;;;;8.88;4.18;;;10.50;93.20;;;;;;5034024;28;20041;-83
2021/05/26 06:21:36;;;;;;;10.68;4.53;;;10.50;93.20;;;;;;5034232;28;20096;-85
2021/05/26 06:24:02;;;;;;;9.48;4.65;;;10.50;93.10;;;;;;5037498;28;20053;-86
2021/05/26 06:26:32;;;;;;;8.65;3.88;;;10.50;93.10;;;;;;5034773;28;20448;-85
2021/05/26 06:28:59;;;;;;;9.02;5.10;;;10.50;93.10;;;;;;5034069;28;20053;-83
2021/05/26 06:31:25;;;;;;;11.07;4.60;;;10.50;93.20;;;;;;5035223;28;20049;-86
2021/05/26 06:33:51;;;;;;;12.88;4.85;;;10.60;93.20;;;;;;5036339;28;20045;-86
2021/05/26 06:36:17;;;;;;;10.30;4.93;;;10.60;93.20;;;;;;5035155;28;20474;-86
2021/05/26 06:38:42;;;;;;;12.13;5.05;;;10.60;93.30;;;;;;5034926;28;20053;-85
2021/05/26 06:41:10;;;;;;;10.48;4.57;;;10.60;93.30;;;;;;5032674;28;20493;-85
2021/05/26 06:43:36;;;;;;;10.32;5.15;;;10.60;93.30;;;;;;5035207;28;20049;-86
2021/05/26 06:46:02;;;;;;;9.32;4.80;;;10.70;93.40;;;;;;5035096;28;20048;-86
2021/05/26 06:48:27;;;;;;;9.30;4.93;;;10.70;93.30;;;;;;5034523;28;20049;-86
2021/05/26 06:50:53;;;;;;;12.25;4.75;;;10.70;93.30;;;;;;5037053;28;20148;-85
2021/05/26 06:53:18;;;;;;;11.30;4.63;;;10.70;93.30;;;;;;5033673;28;20053;-84
2021/05/26 06:55:44;;;;;;;7.43;4.50;;;10.70;93.30;;;;;;5035205;28;20049;-82
2021/05/26 06:58:10;;;;;;;8.60;4.55;;;10.80;93.40;;;;;;5036963;28;20046;-82
2021/05/26 07:00:35;;;;;;;9.20;4.72;;;10.70;93.30;;;;;;5033701;28;20478;-81
2021/05/26 07:03:02;;;;;;;9.40;4.78;;;10.70;93.40;;;;;;5034382;28;20448;-81
2021/05/26 07:05:28;;;;;;;9.20;4.93;;;10.80;93.50;;;;;;5035700;28;20053;-84
2021/05/26 07:07:54;;;;;;;9.45;4.88;;;10.70;93.50;;;;;;5033790;28;20099;-82
2021/05/26 07:10:20;;;;;;;10.00;4.70;;;10.80;93.50;;;;;;5043057;28;20055;-81
2021/05/26 07:12:46;;;;;;;10.57;5.20;;;10.80;93.50;;;;;;5040808;28;20042;-82
2021/05/26 07:15:14;;;;;;;8.70;5.55;;;10.80;93.60;;;;;;5049180;28;20045;-83
2021/05/26 07:17:40;;;;;;;9.45;5.45;;;10.80;93.60;;;;;;5046102;28;20041;-81
2021/05/26 07:20:06;;;;;;;9.13;5.10;;;10.80;93.70;;;;;;5033885;28;20045;-80
2021/05/26 07:22:31;;;;;;;12.70;4.93;;;10.80;93.70;;;;;;5030552;28;20045;-81
2021/05/26 07:24:57;;;;;;;11.52;5.53;;;10.80;93.60;;;;;;5033853;28;20056;-80
2021/05/26 07:27:23;;;;;;;11.25;5.68;;;10.90;93.70;;;;;;5031493;28;20051;-82
2021/05/26 07:29:49;;;;;;;11.57;5.50;;;10.80;93.70;;;;;;5033199;28;20052;-82
2021/05/26 07:32:15;;;;;;;9.23;4.55;;;10.90;93.70;;;;;;5034164;28;20041;-82
2021/05/26 07:34:40;;;;;;;9.77;5.00;;;10.90;93.70;;;;;;5033912;28;20050;-81
2021/05/26 07:37:06;;;;;;;11.13;5.20;;;10.90;93.70;;;;;;5033008;28;20049;-81
2021/05/26 07:39:36;;;;;;;10.02;5.60;;;10.90;93.80;;;;;;5033589;28;20057;-82
2021/05/26 07:42:04;;;;;;;8.70;4.95;;;10.90;93.80;;;;;;5033633;28;20057;-81
2021/05/26 07:44:30;;;;;;;9.20;4.60;;;10.90;93.90;;;;;;5035098;28;20528;-81
2021/05/26 07:46:56;;;;;;;11.02;5.28;;;11.00;94.10;;;;;;5044992;28;20053;-83
2021/05/26 07:49:22;;;;;;;10.25;4.75;;;11.00;94.30;;;;;;5053953;28;20072;-83
2021/05/26 07:51:54;;;;;;;6.88;3.83;;;11.10;94.50;;;;;;5043890;28;20143;-83
2021/05/26 07:54:22;;;;;;;8.02;4.15;;;11.20;94.30;;;;;;5032987;28;20486;-83
2021/05/26 07:56:48;;;;;;;9.27;4.25;;;11.30;94.20;;;;;;5032324;28;20064;-82
2021/05/26 07:59:13;;;;;;;9.82;4.43;;;11.30;94.30;;;;;;5032920;28;20412;-83
2021/05/26 08:01:39;;;;;;;11.23;4.15;;;11.40;94.50;;;;;;5032937;28;20445;-83
2021/05/26 08:04:04;;;;;;;7.05;3.42;;;11.50;94.50;;;;;;5032523;28;20053;-83
2021/05/26 08:06:30;;;;;;;8.18;3.72;;;11.60;94.30;;;;;;5038563;28;20077;-82
2021/05/26 08:08:56;;;;;;;7.28;2.83;;;11.70;94.30;;;;;;5032692;28;20045;-81
2021/05/26 08:11:21;;;;;;;7.70;3.58;;;11.80;94.00;;;;;;5035186;28;20045;-82
2021/05/26 08:13:47;;;;;;;6.97;3.15;;;11.80;93.70;;;;;;5033075;28;20054;-82
2021/05/26 08:16:13;;;;;;;6.90;2.30;;;11.90;93.50;;;;;;5042993;28;20068;-82
2021/05/26 08:18:38;;;;;;;4.97;2.22;;;11.90;93.20;;;;;;5039914;28;20069;-83
2021/05/26 08:21:04;;;;;;;7.45;3.10;;;11.90;93.20;;;;;;5041946;28;20059;-82
2021/05/26 08:23:30;;;;;;;5.90;2.22;;;11.90;93.10;;;;;;5042153;28;20503;-82
2021/05/26 08:25:56;;;;;;;5.60;2.10;;;11.90;92.90;;;;;;5042315;28;20053;-83
2021/05/26 08:28:21;;;;;;;4.57;2.03;;;11.90;92.80;;;;;;5040723;28;20140;-82
2021/05/26 08:30:47;;;;;;;4.72;1.90;;;11.80;92.70;;;;;;5053127;28;20401;-82
2021/05/26 08:33:13;;;;;;;6.50;2.30;;;11.80;92.60;;;;;;5038317;28;20049;-82
2021/05/26 08:35:39;;;;;;;5.63;2.38;;;11.80;92.70;;;;;;5045161;28;20092;-83
2021/05/26 08:38:05;;;;;;;6.85;2.40;;;11.80;92.70;;;;;;5034272;28;20045;-83
2021/05/26 08:40:31;;;;;;;7.70;2.60;;;11.80;92.70;;;;;;5036039;28;20409;-83
2021/05/26 08:42:58;;;;;;;9.07;3.10;;;11.70;92.80;;;;;;5039434;28;20050;-82
2021/05/26 08:45:24;;;;;;;6.50;2.25;;;11.70;93.20;;;;;;5042355;28;20128;-82
2021/05/26 08:47:53;;;;;;;6.13;2.75;;;11.80;93.30;;;;;;5031662;28;20116;-82
2021/05/26 08:50:19;;;;;;;5.95;2.40;;;11.80;93.20;;;;;;5032400;28;20053;-83
2021/05/26 08:52:46;;;;;;;7.60;2.60;;;11.90;93.10;;;;;;5033583;28;20430;-82
2021/05/26 08:55:13;;;;;;;6.68;3.10;;;11.90;93.10;;;;;;5031713;28;20603;-83
2021/05/26 08:57:39;;;;;;;6.93;2.50;;;11.90;93.30;;;;;;5032794;28;20045;-83
2021/05/26 09:00:05;;;;;;;4.45;2.28;;;12.00;93.20;;;;;;5031907;28;20401;-83
2021/05/26 09:02:31;;;;;;;5.07;2.05;;;12.10;93.10;;;;;;5032682;28;20409;-83
2021/05/26 09:04:57;;;;;;;4.90;1.88;;;12.20;93.10;;;;;;5031897;28;20045;-84
2021/05/26 09:07:23;;;;;;;6.15;2.10;;;12.20;93.00;;;;;;5031640;28;20041;-84
2021/05/26 09:09:55;;;;;;;4.85;1.90;;;12.30;93.00;;;;;;5032433;28;20064;-84
2021/05/26 09:12:43;;;;;;;4.65;1.85;;;12.40;92.90;;;;;;5032610;28;20046;-84
2021/05/26 09:15:18;;;;;;;4.78;1.50;;;12.60;92.80;;;;;;5030956;28;20081;-84
2021/05/26 09:17:48;;;;;;;2.85;1.10;;;12.70;92.40;;;;;;5032585;28;20050;-84
2021/05/26 09:20:27;;;;;;;4.22;1.20;;;12.70;91.60;;;;;;5032055;28;20053;-86
2021/05/26 09:23:10;;;;;;;4.15;1.05;;;12.70;91.10;;;;;;5031307;28;20049;-86
2021/05/26 09:25:37;;;;;;;;;;;12.80;91.10;;;;;;5030277;28;20100;-85
2021/05/26 09:28:28;;;;;;;3.92;1.20;;;12.80;91.40;;;;;;5031515;28;19975;-86
2021/05/26 09:31:01;;;;;;;3.08;0.90;;;12.90;91.20;;;;;;5031925;28;20103;-86
2021/05/26 09:33:44;;;;;;;3.40;0.85;;;13.00;91.00;;;;;;5038676;28;20046;-86
2021/05/26 09:36:13;;;;;;;;;;;13.10;90.50;;;;;;5032114;28;20065;-85
2021/05/26 09:38:43;;;;;;;2.58;0.60;;;13.10;89.20;;;;;;5036794;28;20384;-85
2021/05/26 09:41:14;;;;;;;3.30;0.80;;;13.20;90.10;;;;;;5032850;28;20050;-85
2021/05/26 09:43:47;;;;;;;2.72;0.80;;;13.20;89.40;;;;;;5030899;28;20053;-84
2021/05/26 09:46:22;;;;;;;3.88;0.70;;;13.20;88.40;;;;;;5012463;28;20050;-85
2021/05/26 09:49:15;;;;;;;2.17;0.82;;;13.20;87.80;;;;;;5012344;28;20461;-85
2021/05/26 09:51:56;;;;;;;2.05;0.80;;;13.10;87.40;;;;;;5018337;28;20053;-85
2021/05/26 09:54:24;;;;;;;2.22;0.70;;;13.10;88.00;;;;;;5032124;28;20172;-85
2021/05/26 09:57:12;;;;;;;2.42;0.82;;;13.00;88.60;;;;;;5039104;28;20199;-85
2021/05/26 09:59:42;;;;;;;3.15;0.95;;;13.00;88.60;;;;;;5051595;28;20493;-93
2021/05/26 10:02:10;;;;;;;3.50;0.73;;;13.00;88.60;;;;;;5115945;22;20416;-90
2021/05/26 10:04:54;;;;;;;3.65;0.57;;;13.00;88.10;;;;;;5038422;28;20049;-92
2021/05/26 10:07:23;;;;;;;;;;;13.00;86.50;;;;;;5056082;28;20405;-88
2021/05/26 10:09:52;;;;;;;3.35;0.70;;;12.90;85.20;;;;;;5056042;28;19978;-91
2021/05/26 10:12:18;;;;;;;1.92;0.70;;;13.00;87.60;;;;;;5055303;28;20052;-89
2021/05/26 10:14:45;;;;;;;3.80;0.77;;;13.00;87.60;;;;;;5055601;28;20049;-88
2021/05/26 10:17:17;;;;;;;2.42;0.50;;;13.00;87.30;;;;;;5055381;28;20041;-89
2021/05/26 10:19:43;;;;;;;3.00;0.60;;;13.10;87.50;;;;;;5055122;28;20086;-84
2021/05/26 10:22:09;;;;;;;3.17;0.60;;;13.10;87.90;;;;;;5054563;28;20589;-84
2021/05/26 10:24:35;;;;;;;2.58;0.50;;;13.10;87.00;;;;;;5053801;28;20508;-84
2021/05/26 10:27:01;;;;;;;2.70;0.40;;;13.10;85.60;;;;;;5054901;28;20049;-84
2021/05/26 10:29:30;;;;;;;2.03;0.60;;;13.10;84.90;;;;;;5052867;28;20118;-85
2021/05/26 10:31:57;;;;;;;1.65;0.50;;;13.10;84.00;;;;;;5053474;28;20127;-85
2021/05/26 10:34:42;;;;;;;1.58;0.60;;;13.10;84.40;;;;;;5042750;28;20500;-85
2021/05/26 10:37:11;;;;;;;1.45;0.50;;;13.10;83.90;;;;;;5054745;28;20488;-85
2021/05/26 10:39:37;;;;;;;2.00;0.52;;;13.10;84.90;;;;;;5054539;28;20056;-85
2021/05/26 10:42:04;;;;;;;3.40;0.85;;;13.10;85.20;;;;;;5054698;28;20049;-85
2021/05/26 10:45:06;;;;;;;1.75;0.57;;;13.20;84.80;;;;;;5055069;28;20057;-84
2021/05/26 10:47:38;;;;;;;2.92;0.50;;;13.30;84.40;;;;;;5049348;28;20079;-85
2021/05/26 10:50:14;;;;;;;1.27;0.40;;;13.40;84.10;;;;;;5053528;28;20063;-84
2021/05/26 10:52:55;;;;;;;2.95;0.65;;;13.50;83.20;;;;;;5049496;28;20122;-85
2021/05/26 10:55:39;;;;;;;1.15;0.50;;;13.50;83.20;;;;;;5054529;28;20053;-85
2021/05/26 10:58:24;;;;;;;1.92;0.60;;;13.50;80.90;;;;;;5054774;28;20045;-84
2021/05/26 11:00:56;;;;;;;4.20;1.02;;;13.50;82.30;;;;;;5050716;28;20052;-84
2021/05/26 11:03:25;;;;;;;3.38;0.77;;;13.50;81.60;;;;;;5054149;28;20091;-84
2021/05/26 11:05:58;;;;;;;4.28;0.77;;;13.50;80.70;;;;;;5054483;28;20095;-84
2021/05/26 11:08:45;;;;;;;4.10;0.75;;;13.60;81.20;;;;;;5053467;28;20048;-84
2021/05/26 11:11:23;;;;;;;3.00;0.80;;;13.70;81.20;;;;;;5054761;28;20492;-82
2021/05/26 11:14:18;;;;;;;2.65;0.73;;;13.70;80.60;;;;;;5053043;28;20056;-84
2021/05/26 11:16:47;;;;;;;4.10;0.88;;;13.80;81.20;;;;;;5054779;28;20124;-83
2021/05/26 11:19:21;;;;;;;4.50;0.80;;;13.80;80.40;;;;;;5053964;28;20041;-83
2021/05/26 11:21:56;;;;;;;3.75;0.82;;;13.90;80.60;;;;;;5053216;28;20099;-85
2021/05/26 11:24:24;;;;;;;3.42;0.90;;;13.90;80.30;;;;;;5054474;28;20071;-82
2021/05/26 11:26:50;;;;;;;4.10;0.90;;;13.90;80.50;;;;;;5054281;28;20484;-82
2021/05/26 11:29:33;;;;;;;4.78;0.90;;;14.00;79.90;;;;;;5053061;28;20523;-83
2021/05/26 11:32:10;;;;;;;2.78;0.73;;;14.00;78.70;;;;;;5054283;28;20045;-82
2021/05/26 11:34:37;;;;;;;3.90;1.00;;;14.00;77.70;;;;;;5053976;28;20450;-84
2021/05/26 11:37:03;;;;;;;4.13;1.02;;;14.00;78.90;;;;;;5053303;28;20105;-83
2021/05/26 11:39:31;;;;;;;4.43;0.80;;;14.10;79.10;;;;;;5054056;28;20052;-86
2021/05/26 11:42:15;;;;;;;4.55;0.90;;;14.10;78.50;;;;;;5053096;28;20052;-84
2021/05/26 11:44:44;;;;;;;4.78;1.00;;;14.20;77.90;;;;;;5054036;28;20438;-84
2021/05/26 11:47:10;;;;;;;4.32;1.10;;;14.30;78.90;;;;;;5053714;28;20053;-85
2021/05/26 11:49:42;;;;;;;3.47;1.02;;;14.30;78.90;;;;;;5052387;28;20048;-85
2021/05/26 11:52:11;;;;;;;4.00;1.02;;;14.40;79.20;;;;;;5053871;28;20052;-84
2021/05/26 11:54:57;;;;;;;5.00;1.10;;;14.40;78.90;;;;;;5053737;28;20049;-85
2021/05/26 11:57:33;;;;;;;6.95;1.00;;;14.50;77.70;;;;;;5053163;28;20107;-84
2021/05/26 12:00:06;;;;;;;6.00;0.90;;;14.50;77.10;;;;;;5053263;28;20049;-83
2021/05/26 12:02:32;;;;;;;3.05;1.00;;;14.50;77.90;;;;;;5053297;28;20052;-84
2021/05/26 12:04:58;;;;;;;5.93;1.10;;;14.60;78.50;;;;;;5052372;28;20064;-84
2021/05/26 12:07:25;;;;;;;6.18;1.33;;;14.60;78.70;;;;;;5053601;28;20076;-83
2021/05/26 12:09:55;;;;;;;5.13;1.13;;;14.70;78.90;;;;;;5052513;28;20110;-84
2021/05/26 12:12:22;;;;;;;5.60;1.10;;;14.70;77.60;;;;;;5053379;28;20047;-83
2021/05/26 12:14:48;;;;;;;5.55;1.10;;;14.70;77.80;;;;;;5052821;28;20048;-88
2021/05/26 12:17:16;;;;;;;6.10;1.27;;;14.70;77.30;;;;;;5052276;28;20091;-87
2021/05/26 12:19:43;;;;;;;5.70;1.23;;;14.70;76.60;;;;;;5052808;28;20440;-87
2021/05/26 12:22:14;;;;;;;6.65;1.27;;;14.70;77.80;;;;;;5053241;28;20128;-86
2021/05/26 12:25:09;;;;;;;3.17;1.05;;;14.70;76.30;;;;;;5051783;28;20171;-83
2021/05/26 12:27:43;;;;;;;6.10;1.40;;;14.70;73.90;;;;;;5048124;28;20045;-85
2021/05/26 12:30:12;;;;;;;4.22;1.40;;;14.70;75.20;;;;;;5051291;28;20048;-85
2021/05/26 12:32:37;;;;;;;4.70;1.20;;;14.60;75.30;;;;;;5052285;28;20448;-84
2021/05/26 12:35:03;;;;;;;5.35;1.02;;;14.60;74.00;;;;;;5052340;28;20053;-85
2021/05/26 12:37:40;;;;;;;5.80;1.20;;;14.50;74.00;;;;;;5052293;28;20125;-87
2021/05/26 12:40:06;;;;;;;6.10;1.13;;;14.50;73.80;;;;;;5051692;28;20053;-85
2021/05/26 12:42:40;;;;;;;4.40;1.25;;;14.40;75.70;;;;;;5052849;28;20045;-86
2021/05/26 12:45:38;;;;;;;6.00;1.30;;;14.40;76.70;;;;;;5051461;28;20555;-85
2021/05/26 12:48:14;;;;;;;4.82;1.05;;;14.40;73.20;;;;;;5033438;28;20044;-85
2021/05/26 12:50:41;;;;;;;7.18;1.30;;;14.40;74.40;;;;;;5032863;28;20059;-85